Time;durP1;ratioP1;P1;durP2;ratioP2;P2;SDS_P1;SDS_P2;PMS_P1;PMS_P2;Temp;Humidity;BMP_temperature;BMP_pressure;BME280_temperature;BME280_humidity;BME280_pressure;Samples;Min_cycle;Max_cycle;Signal;HPM_P1;HPM_P2
2022/07/28 00:00:35;;;;;;;3.20;2.90;;;19.60;96.30;;;;;;4991087;28;20446;-74
2022/07/28 00:03:00;;;;;;;3.47;2.60;;;19.50;95.40;;;;;;4992872;28;20436;-74
2022/07/28 00:05:26;;;;;;;2.73;2.53;;;19.50;95.40;;;;;;4988547;28;20183;-73
2022/07/28 00:07:52;;;;;;;4.10;2.90;;;19.30;95.60;;;;;;4988771;28;20435;-74
2022/07/28 00:10:17;;;;;;;4.47;2.50;;;19.30;96.20;;;;;;4990263;28;20180;-75
2022/07/28 00:12:43;;;;;;;3.10;2.90;;;19.40;96.20;;;;;;4989722;28;20206;-73
2022/07/28 00:15:10;;;;;;;12.53;3.40;;;19.30;96.90;;;;;;4972986;28;20195;-74
2022/07/28 00:17:35;;;;;;;4.70;2.90;;;19.20;96.40;;;;;;4982891;28;20211;-73
2022/07/28 00:20:01;;;;;;;3.00;2.30;;;19.20;95.90;;;;;;4999130;28;20579;-74
2022/07/28 00:22:26;;;;;;;2.80;2.60;;;19.10;96.50;;;;;;4990583;28;20203;-75
2022/07/28 00:24:52;;;;;;;4.07;2.70;;;19.10;97.40;;;;;;4990130;28;20190;-74
2022/07/28 00:27:17;;;;;;;3.60;2.60;;;19.00;97.70;;;;;;4993164;28;20336;-74
2022/07/28 00:29:43;;;;;;;5.27;3.27;;;18.90;98.30;;;;;;4997654;28;20692;-75
2022/07/28 00:32:09;;;;;;;3.63;2.60;;;18.80;99.00;;;;;;4990591;28;20226;-76
2022/07/28 00:34:35;;;;;;;7.20;2.53;;;18.70;98.90;;;;;;4990213;28;20497;-74
2022/07/28 00:37:00;;;;;;;3.60;2.60;;;18.70;99.50;;;;;;4990069;28;20207;-74
2022/07/28 00:39:26;;;;;;;2.33;2.13;;;18.80;99.60;;;;;;4991075;28;20607;-74
2022/07/28 00:41:51;;;;;;;2.80;2.43;;;18.80;99.90;;;;;;4989695;28;20204;-74
2022/07/28 00:44:17;;;;;;;2.50;2.30;;;18.70;99.90;;;;;;4990711;28;20180;-74
2022/07/28 00:46:44;;;;;;;3.00;2.80;;;18.60;99.90;;;;;;4982619;28;20267;-74
2022/07/28 00:49:10;;;;;;;3.63;3.33;;;18.50;99.90;;;;;;4973129;28;20184;-73
2022/07/28 00:51:35;;;;;;;3.33;3.03;;;18.50;99.90;;;;;;4972949;28;20458;-73
2022/07/28 00:54:02;;;;;;;3.47;3.17;;;18.50;99.90;;;;;;4988369;28;20439;-75
2022/07/28 00:56:28;;;;;;;3.10;2.90;;;18.40;99.90;;;;;;4981005;28;20286;-73
2022/07/28 00:58:53;;;;;;;3.37;2.73;;;18.40;99.90;;;;;;4990237;28;20521;-74
2022/07/28 01:01:19;;;;;;;3.20;2.90;;;18.30;99.90;;;;;;4986931;28;20223;-73
2022/07/28 01:03:50;;;;;;;3.20;2.90;;;18.30;99.90;;;;;;4968564;28;20182;-73
2022/07/28 01:06:40;;;;;;;4.87;2.93;;;18.20;99.90;;;;;;4986613;28;20513;-75
2022/07/28 01:09:20;;;;;;;3.97;3.67;;;18.10;99.90;;;;;;4989216;28;20929;-74
2022/07/28 01:12:31;;;;;;;3.90;3.60;;;18.10;99.90;;;;;;4985071;28;20541;-74
2022/07/28 01:15:07;;;;;;;3.53;3.23;;;18.00;99.90;;;;;;4967373;28;20997;-74
2022/07/28 01:17:55;;;;;;;4.77;3.47;;;18.10;99.90;;;;;;4997064;28;20482;-75
2022/07/28 01:20:31;;;;;;;5.53;3.40;;;18.10;99.90;;;;;;4983431;28;20431;-74
2022/07/28 01:23:31;;;;;;;2.97;2.77;;;18.20;99.90;;;;;;4989618;28;20433;-74
2022/07/28 01:26:12;;;;;;;3.60;3.30;;;18.00;99.90;;;;;;4984200;28;20446;-74
2022/07/28 01:29:33;;;;;;;3.47;3.17;;;17.90;99.90;;;;;;4990184;28;20449;-75
2022/07/28 01:32:24;;;;;;;5.63;4.07;;;17.80;99.90;;;;;;4896276;28;20528;-74
2022/07/28 01:35:19;;;;;;;2.97;2.70;;;17.80;99.90;;;;;;4983616;28;20442;-72
2022/07/28 01:37:50;;;;;;;4.03;3.13;;;17.70;99.90;;;;;;4983772;28;20435;-72
2022/07/28 01:40:21;;;;;;;5.53;2.90;;;17.70;99.90;;;;;;5000801;28;20967;-72
2022/07/28 01:42:50;;;;;;;4.60;3.27;;;17.70;99.90;;;;;;4995898;28;20482;-72
2022/07/28 01:45:18;;;;;;;3.57;2.73;;;17.80;99.90;;;;;;4989301;28;20905;-72
2022/07/28 01:47:45;;;;;;;3.23;2.93;;;17.70;99.90;;;;;;4989010;28;20423;-72
2022/07/28 01:50:14;;;;;;;3.40;3.17;;;17.70;99.90;;;;;;4992642;28;20564;-72
2022/07/28 01:52:41;;;;;;;3.27;2.97;;;17.70;99.90;;;;;;4979452;28;20499;-72
2022/07/28 01:55:08;;;;;;;6.23;3.20;;;17.70;99.90;;;;;;4992931;28;20426;-72
2022/07/28 01:57:35;;;;;;;2.63;2.43;;;17.70;99.90;;;;;;4983089;28;20466;-72
2022/07/28 02:00:03;;;;;;;3.13;2.93;;;17.60;99.90;;;;;;4989261;28;20447;-72
2022/07/28 02:02:30;;;;;;;3.30;3.10;;;17.50;99.90;;;;;;4987745;28;20827;-72
2022/07/28 02:04:58;;;;;;;3.60;3.27;;;17.60;99.90;;;;;;4994383;28;20437;-72
2022/07/28 02:07:25;;;;;;;3.67;3.17;;;17.50;99.90;;;;;;4994406;28;20453;-72
2022/07/28 02:09:52;;;;;;;2.83;2.63;;;17.60;99.90;;;;;;4988323;28;20442;-72
2022/07/28 02:12:19;;;;;;;4.17;3.43;;;17.50;99.90;;;;;;4997274;28;20471;-72
2022/07/28 02:14:49;;;;;;;3.63;3.33;;;17.40;99.90;;;;;;4975672;28;20537;-72
2022/07/28 02:17:19;;;;;;;5.70;3.63;;;17.30;99.90;;;;;;4990981;28;20502;-72
2022/07/28 02:19:46;;;;;;;3.60;3.00;;;17.30;99.90;;;;;;4999412;28;20855;-72
2022/07/28 02:22:13;;;;;;;3.70;3.37;;;17.30;99.90;;;;;;4993605;28;20458;-72
2022/07/28 02:24:42;;;;;;;3.20;3.00;;;17.30;99.90;;;;;;4987592;28;20530;-72
2022/07/28 02:27:37;;;;;;;3.33;3.07;;;17.20;99.90;;;;;;4991011;28;20439;-72
2022/07/28 02:30:42;;;;;;;4.63;3.20;;;17.10;99.90;;;;;;4994262;28;20986;-72
2022/07/28 02:33:13;;;;;;;4.37;3.93;;;17.10;99.90;;;;;;4989532;28;20446;-72
2022/07/28 02:35:44;;;;;;;3.67;3.37;;;17.30;99.90;;;;;;4992373;28;20517;-72
2022/07/28 02:38:33;;;;;;;5.07;4.57;;;17.20;99.90;;;;;;4977654;28;20430;-71
2022/07/28 02:41:07;;;;;;;3.70;3.40;;;17.10;99.90;;;;;;4989035;28;20462;-72
2022/07/28 02:43:37;;;;;;;3.83;3.10;;;17.00;99.90;;;;;;4993007;28;20446;-72
2022/07/28 02:46:09;;;;;;;5.07;3.77;;;17.00;99.90;;;;;;4991872;28;20489;-72
2022/07/28 02:48:37;;;;;;;3.60;3.27;;;16.90;99.90;;;;;;4986396;28;20481;-71
2022/07/28 02:51:04;;;;;;;7.10;3.40;;;16.80;99.90;;;;;;4984159;28;20836;-72
2022/07/28 02:53:30;;;;;;;4.20;3.90;;;16.70;99.90;;;;;;4988081;28;20482;-72
2022/07/28 02:55:57;;;;;;;3.43;3.13;;;16.70;99.90;;;;;;4989296;28;20983;-72
2022/07/28 02:58:25;;;;;;;4.07;3.70;;;16.70;99.90;;;;;;4983578;28;20446;-71
2022/07/28 03:00:52;;;;;;;3.60;3.40;;;16.70;99.90;;;;;;4989597;28;20463;-71
2022/07/28 03:03:19;;;;;;;5.20;3.00;;;16.70;99.90;;;;;;4988727;28;20444;-72
2022/07/28 03:05:44;;;;;;;3.90;3.50;;;16.70;99.90;;;;;;4987482;28;20446;-72
2022/07/28 03:08:11;;;;;;;3.60;3.30;;;16.70;99.90;;;;;;4987215;28;20449;-72
2022/07/28 03:10:36;;;;;;;4.17;3.80;;;16.60;99.90;;;;;;4992826;28;20737;-72
2022/07/28 03:13:05;;;;;;;5.50;3.70;;;16.70;99.90;;;;;;4992351;28;20978;-72
2022/07/28 03:15:31;;;;;;;6.03;4.03;;;16.70;99.90;;;;;;4997753;28;20555;-72
2022/07/28 03:17:57;;;;;;;4.10;2.70;;;16.70;99.90;;;;;;4988441;28;20457;-71
2022/07/28 03:20:22;;;;;;;3.57;3.37;;;16.70;99.90;;;;;;4983686;28;20230;-72
2022/07/28 03:22:48;;;;;;;3.70;3.40;;;16.60;99.90;;;;;;4999490;28;20257;-72
2022/07/28 03:25:18;;;;;;;3.70;3.40;;;16.60;99.90;;;;;;5003856;28;20311;-72
2022/07/28 03:27:46;;;;;;;3.67;2.93;;;16.60;99.90;;;;;;5005215;28;20186;-72
2022/07/28 03:30:19;;;;;;;3.40;3.10;;;16.50;99.90;;;;;;5001989;28;20526;-72
2022/07/28 03:32:50;;;;;;;4.33;3.20;;;16.40;99.90;;;;;;5020338;23;21393;-66
2022/07/28 03:35:17;;;;;;;5.27;3.60;;;16.40;99.90;;;;;;4975050;28;21004;-66
2022/07/28 03:37:53;;;;;;;3.43;3.13;;;16.40;99.90;;;;;;4975675;28;20471;-66
2022/07/28 03:40:20;;;;;;;3.83;3.57;;;16.40;99.90;;;;;;4973790;28;20429;-68
2022/07/28 03:42:48;;;;;;;4.50;4.10;;;16.50;99.90;;;;;;4974317;28;20459;-68
2022/07/28 03:45:17;;;;;;;4.23;3.27;;;16.40;99.90;;;;;;4974875;28;20407;-69
2022/07/28 03:47:50;;;;;;;3.40;3.10;;;16.30;99.90;;;;;;4974560;28;20444;-68
2022/07/28 03:50:16;;;;;;;4.43;2.80;;;16.30;99.90;;;;;;4990298;28;20717;-68
2022/07/28 03:52:41;;;;;;;5.17;3.60;;;16.30;99.90;;;;;;4979015;28;20459;-68
2022/07/28 03:55:07;;;;;;;6.33;3.70;;;16.30;99.90;;;;;;4973818;28;20192;-69
2022/07/28 03:57:33;;;;;;;6.03;3.63;;;16.30;99.90;;;;;;4985053;28;20200;-67
2022/07/28 03:59:58;;;;;;;3.50;3.20;;;16.20;99.90;;;;;;4984496;28;20453;-68
2022/07/28 04:02:24;;;;;;;3.60;3.30;;;16.20;99.90;;;;;;4978289;28;20208;-68
2022/07/28 04:04:49;;;;;;;4.33;3.80;;;16.20;99.90;;;;;;4974054;28;20184;-68
2022/07/28 04:07:15;;;;;;;3.57;3.13;;;16.30;99.90;;;;;;4957990;28;20192;-68
2022/07/28 04:09:40;;;;;;;3.77;3.10;;;16.20;99.90;;;;;;4972889;28;20716;-68
2022/07/28 04:12:06;;;;;;;3.83;3.53;;;16.30;99.90;;;;;;4973925;28;20180;-69
2022/07/28 04:14:32;;;;;;;4.33;3.93;;;16.30;99.90;;;;;;4973692;28;20200;-68
2022/07/28 04:16:57;;;;;;;4.07;3.40;;;16.30;99.90;;;;;;4973648;28;20689;-68
2022/07/28 04:19:23;;;;;;;5.70;4.67;;;16.30;99.90;;;;;;4973206;28;20188;-68
2022/07/28 04:21:48;;;;;;;5.90;3.70;;;16.40;99.90;;;;;;4973863;28;20168;-67
2022/07/28 04:24:14;;;;;;;3.47;3.17;;;16.30;99.90;;;;;;4983106;28;20728;-68
2022/07/28 04:26:39;;;;;;;5.20;4.70;;;16.30;99.90;;;;;;4985029;28;20171;-69
2022/07/28 04:29:05;;;;;;;3.90;3.23;;;16.30;99.90;;;;;;4984776;28;20184;-68
2022/07/28 04:31:30;;;;;;;5.23;4.80;;;16.40;99.90;;;;;;4972803;28;20623;-68
2022/07/28 04:33:56;;;;;;;3.90;3.60;;;16.60;99.90;;;;;;4973428;28;20713;-68
2022/07/28 04:36:21;;;;;;;5.03;4.20;;;16.70;99.90;;;;;;4973141;28;20192;-67
2022/07/28 04:38:47;;;;;;;5.33;3.70;;;16.80;99.90;;;;;;4973399;28;20645;-68
2022/07/28 04:41:12;;;;;;;4.80;3.97;;;16.80;99.90;;;;;;4987742;28;20178;-68
2022/07/28 04:43:38;;;;;;;6.10;4.70;;;16.90;99.90;;;;;;4973176;28;20705;-68
2022/07/28 04:46:04;;;;;;;5.83;5.20;;;17.00;99.90;;;;;;4979436;28;20654;-68
2022/07/28 04:48:29;;;;;;;6.23;4.20;;;17.10;99.90;;;;;;4968871;28;20280;-68
2022/07/28 04:50:56;;;;;;;6.07;4.13;;;17.20;99.90;;;;;;4975660;28;20196;-69
2022/07/28 04:53:21;;;;;;;3.93;3.53;;;17.20;99.90;;;;;;4957509;28;20207;-69
2022/07/28 04:55:48;;;;;;;5.07;3.77;;;17.30;99.90;;;;;;4981184;28;20773;-68
2022/07/28 04:58:17;;;;;;;4.20;3.90;;;17.50;99.90;;;;;;4973733;28;20587;-68
2022/07/28 05:00:43;;;;;;;4.10;3.30;;;17.50;99.90;;;;;;4984604;28;20816;-68
2022/07/28 05:03:09;;;;;;;4.50;3.60;;;17.70;99.90;;;;;;4975767;28;20456;-68
2022/07/28 05:05:34;;;;;;;4.80;3.47;;;17.90;99.90;;;;;;4969743;28;20459;-69
2022/07/28 05:08:00;;;;;;;4.33;3.73;;;18.00;99.90;;;;;;4979823;28;20542;-68
2022/07/28 05:10:25;;;;;;;3.73;3.53;;;18.00;99.90;;;;;;4980277;28;20194;-68
2022/07/28 05:12:52;;;;;;;3.93;3.63;;;18.30;99.90;;;;;;4981784;28;20284;-69
2022/07/28 05:15:18;;;;;;;4.83;4.00;;;18.40;99.90;;;;;;4971256;28;20183;-69
2022/07/28 05:17:43;;;;;;;5.10;4.67;;;18.50;99.90;;;;;;4960165;28;20478;-68
2022/07/28 05:20:12;;;;;;;3.43;3.13;;;18.70;99.90;;;;;;4976838;28;20886;-68
2022/07/28 05:22:42;;;;;;;3.50;3.20;;;19.00;99.90;;;;;;4980168;28;20568;-68
2022/07/28 05:25:19;;;;;;;5.30;3.87;;;19.30;99.90;;;;;;4981671;28;20498;-69
2022/07/28 05:27:46;;;;;;;4.40;3.47;;;19.60;99.90;;;;;;4982906;28;20441;-68
2022/07/28 05:30:13;;;;;;;4.37;3.33;;;19.70;99.90;;;;;;4960137;28;20444;-68
2022/07/28 05:32:39;;;;;;;3.87;3.50;;;19.70;99.90;;;;;;4980942;28;20483;-67
2022/07/28 05:35:05;;;;;;;3.30;3.00;;;19.70;99.90;;;;;;4982030;28;20435;-68
2022/07/28 05:37:33;;;;;;;3.73;3.30;;;19.60;99.90;;;;;;4983145;28;20547;-68
2022/07/28 05:39:59;;;;;;;3.60;3.30;;;19.60;99.90;;;;;;4977906;28;20428;-67
2022/07/28 05:42:27;;;;;;;3.73;3.43;;;19.70;99.90;;;;;;4991980;28;20950;-67
2022/07/28 05:44:52;;;;;;;5.40;3.73;;;19.80;99.90;;;;;;4991561;28;20213;-66
2022/07/28 05:47:18;;;;;;;3.60;3.40;;;19.80;99.90;;;;;;4982098;28;20896;-68
2022/07/28 05:49:44;;;;;;;4.17;3.23;;;19.70;99.90;;;;;;4992072;28;20207;-67
2022/07/28 05:52:09;;;;;;;4.27;3.43;;;19.60;99.90;;;;;;4992391;28;20667;-67
2022/07/28 05:54:35;;;;;;;3.80;3.40;;;19.70;99.90;;;;;;4976790;28;20685;-67
2022/07/28 05:57:00;;;;;;;3.90;3.60;;;19.80;99.90;;;;;;4973227;28;20661;-66
2022/07/28 05:59:26;;;;;;;4.73;4.17;;;20.00;99.90;;;;;;4972876;28;20179;-67
2022/07/28 06:01:51;;;;;;;3.90;3.40;;;20.20;99.90;;;;;;4973068;28;20168;-66
2022/07/28 06:04:17;;;;;;;6.80;4.80;;;20.30;99.90;;;;;;4971843;28;20196;-66
2022/07/28 06:06:43;;;;;;;4.13;3.70;;;20.40;99.90;;;;;;4972604;28;20182;-66
2022/07/28 06:09:08;;;;;;;5.20;3.60;;;20.50;99.90;;;;;;4970668;28;20945;-66
2022/07/28 06:11:34;;;;;;;5.93;3.30;;;20.60;99.90;;;;;;4963946;28;20188;-66
2022/07/28 06:13:59;;;;;;;5.40;3.70;;;20.80;99.90;;;;;;4970862;28;20670;-65
2022/07/28 06:16:25;;;;;;;4.87;4.20;;;21.10;99.90;;;;;;4969300;28;20228;-65
2022/07/28 06:18:51;;;;;;;4.57;3.30;;;21.40;99.90;;;;;;4966862;28;20260;-65
2022/07/28 06:21:17;;;;;;;4.47;3.33;;;21.60;99.90;;;;;;4970126;28;20606;-65
2022/07/28 06:23:42;;;;;;;6.40;3.97;;;21.70;99.90;;;;;;4977379;28;20200;-66
2022/07/28 06:26:08;;;;;;;4.80;4.40;;;21.70;99.90;;;;;;4968802;28;20436;-69
2022/07/28 06:28:33;;;;;;;3.90;3.60;;;21.80;99.90;;;;;;4964416;28;20228;-69
2022/07/28 06:30:59;;;;;;;6.73;4.27;;;22.10;99.90;;;;;;4970259;28;20203;-69
2022/07/28 06:33:24;;;;;;;5.13;4.17;;;22.20;99.90;;;;;;4974016;28;20282;-69
2022/07/28 06:35:50;;;;;;;4.60;4.07;;;22.30;99.80;;;;;;4973851;28;20216;-69
2022/07/28 06:38:15;;;;;;;5.97;4.30;;;22.30;99.70;;;;;;4971131;28;20186;-69
2022/07/28 06:40:42;;;;;;;6.33;5.17;;;22.20;99.80;;;;;;4982741;28;20256;-69
2022/07/28 06:43:07;;;;;;;4.50;4.17;;;22.20;99.50;;;;;;4984561;28;20197;-69
2022/07/28 06:45:33;;;;;;;5.30;4.87;;;22.30;99.60;;;;;;4988245;28;20485;-69
2022/07/28 06:47:59;;;;;;;4.47;4.07;;;22.50;99.60;;;;;;4974712;28;20184;-70
2022/07/28 06:50:24;;;;;;;4.57;4.00;;;22.60;99.10;;;;;;4989365;28;20243;-69
2022/07/28 06:52:50;;;;;;;6.33;4.20;;;22.80;98.60;;;;;;4977092;28;20261;-69
2022/07/28 06:55:16;;;;;;;4.80;4.50;;;23.00;98.50;;;;;;4983393;28;20650;-69
2022/07/28 06:57:42;;;;;;;4.60;4.20;;;23.00;98.10;;;;;;4981857;28;20234;-71
2022/07/28 07:00:11;;;;;;;6.70;4.90;;;23.10;98.00;;;;;;4984269;28;20179;-70
2022/07/28 07:02:41;;;;;;;5.53;4.43;;;23.30;97.70;;;;;;4987353;28;20484;-70
2022/07/28 07:05:08;;;;;;;5.27;4.77;;;23.60;97.10;;;;;;4988028;28;20451;-70
2022/07/28 07:07:34;;;;;;;6.80;5.70;;;23.70;97.00;;;;;;4989452;28;20450;-70
2022/07/28 07:09:59;;;;;;;5.23;4.73;;;23.80;96.60;;;;;;4972614;28;20447;-70
2022/07/28 07:12:25;;;;;;;7.90;6.00;;;23.70;96.70;;;;;;4972690;28;20184;-70
2022/07/28 07:14:50;;;;;;;6.10;5.60;;;23.80;96.60;;;;;;4969368;28;20188;-70
2022/07/28 07:17:16;;;;;;;5.80;5.17;;;24.00;96.30;;;;;;4971232;28;20207;-70
2022/07/28 07:19:41;;;;;;;6.10;4.83;;;24.10;96.30;;;;;;4973330;28;20188;-70
2022/07/28 07:22:07;;;;;;;5.63;5.17;;;24.20;95.90;;;;;;4977753;28;20192;-70
2022/07/28 07:24:32;;;;;;;6.50;5.90;;;24.50;95.60;;;;;;4972027;28;20247;-70
2022/07/28 07:26:58;;;;;;;7.00;5.30;;;24.40;95.50;;;;;;4972891;28;20622;-70
2022/07/28 07:29:23;;;;;;;8.73;6.77;;;24.60;95.70;;;;;;4971420;28;20236;-70
2022/07/28 07:31:49;;;;;;;5.23;4.73;;;25.00;95.00;;;;;;4972661;28;20672;-70
2022/07/28 07:34:15;;;;;;;6.50;5.90;;;25.30;94.50;;;;;;4972061;28;20207;-70
2022/07/28 07:36:40;;;;;;;6.60;5.60;;;25.70;93.80;;;;;;4972468;28;20204;-69
2022/07/28 07:39:06;;;;;;;7.77;5.73;;;25.80;93.30;;;;;;4970913;28;20188;-70
2022/07/28 07:41:31;;;;;;;5.77;5.30;;;26.20;92.80;;;;;;4974299;28;20259;-70
2022/07/28 07:43:57;;;;;;;5.83;5.30;;;26.10;92.80;;;;;;4973102;28;20604;-70
2022/07/28 07:46:22;;;;;;;6.20;5.57;;;25.90;93.10;;;;;;4984832;28;20184;-70
2022/07/28 07:48:48;;;;;;;6.77;6.10;;;26.00;92.80;;;;;;4971399;28;20206;-69
2022/07/28 07:51:13;;;;;;;8.40;6.40;;;26.30;92.60;;;;;;4976974;28;20176;-70
2022/07/28 07:53:39;;;;;;;6.30;5.77;;;26.60;92.10;;;;;;4970545;28;20270;-70
2022/07/28 07:56:04;;;;;;;6.67;6.03;;;26.80;91.60;;;;;;4972499;28;20215;-70
2022/07/28 07:58:30;;;;;;;7.13;6.43;;;26.80;91.10;;;;;;4970309;28;20168;-70
2022/07/28 08:00:55;;;;;;;7.07;6.47;;;26.70;91.20;;;;;;4971814;28;20549;-70
2022/07/28 08:03:21;;;;;;;9.57;5.70;;;26.70;91.10;;;;;;4969213;28;20203;-70
2022/07/28 08:05:48;;;;;;;7.00;6.40;;;26.80;91.20;;;;;;4971111;28;20312;-70
2022/07/28 08:08:14;;;;;;;6.90;6.20;;;27.20;90.40;;;;;;4969521;28;20208;-70
2022/07/28 08:10:40;;;;;;;6.67;6.27;;;27.30;90.40;;;;;;4969218;28;20446;-70
2022/07/28 08:13:06;;;;;;;6.17;5.73;;;27.50;90.10;;;;;;4968656;28;20834;-70
2022/07/28 08:15:33;;;;;;;7.83;6.93;;;27.80;89.90;;;;;;4970899;28;20454;-70
2022/07/28 08:17:59;;;;;;;7.20;6.53;;;28.00;88.60;;;;;;4971735;28;20471;-70
2022/07/28 08:20:25;;;;;;;6.70;6.10;;;28.10;87.80;;;;;;4971389;28;20531;-70
2022/07/28 08:22:53;;;;;;;7.50;6.90;;;28.20;87.50;;;;;;4970381;28;20463;-70
2022/07/28 08:25:19;;;;;;;7.37;6.87;;;28.30;86.00;;;;;;4969144;28;20448;-70
2022/07/28 08:27:45;;;;;;;7.47;6.23;;;28.50;86.70;;;;;;4971242;28;20440;-70
2022/07/28 08:30:13;;;;;;;7.13;6.63;;;28.50;86.80;;;;;;4970359;28;20431;-70
2022/07/28 08:32:39;;;;;;;7.40;6.80;;;28.60;85.10;;;;;;4968190;28;20251;-70
2022/07/28 08:35:05;;;;;;;7.47;6.40;;;28.80;84.90;;;;;;4970840;28;20467;-70
2022/07/28 08:37:31;;;;;;;7.20;6.70;;;29.00;84.80;;;;;;4969255;28;20669;-70
2022/07/28 08:39:56;;;;;;;11.17;7.07;;;28.90;83.70;;;;;;4963382;28;20466;-70
2022/07/28 08:42:37;;;;;;;6.93;6.33;;;28.50;84.40;;;;;;4968940;28;20191;-70
2022/07/28 08:45:06;;;;;;;8.13;7.57;;;28.30;85.40;;;;;;4972306;28;20638;-70
2022/07/28 08:47:34;;;;;;;6.83;6.17;;;28.60;85.00;;;;;;4954363;28;21245;-70
2022/07/28 08:50:00;;;;;;;7.80;7.20;;;29.10;84.20;;;;;;4977909;28;20430;-70
2022/07/28 08:52:31;;;;;;;6.67;6.17;;;29.40;82.30;;;;;;4968284;28;20448;-70
2022/07/28 08:54:58;;;;;;;8.77;8.07;;;29.60;81.70;;;;;;4971849;28;20431;-70
2022/07/28 08:57:33;;;;;;;7.97;7.33;;;29.70;81.20;;;;;;4969394;28;20554;-70
2022/07/28 09:00:00;;;;;;;7.77;6.47;;;29.50;80.80;;;;;;4965720;28;20444;-70
2022/07/28 09:02:27;;;;;;;8.47;7.67;;;29.80;80.80;;;;;;4967823;28;20467;-70
2022/07/28 09:04:54;;;;;;;8.13;7.43;;;29.90;79.70;;;;;;4971486;28;20431;-70
2022/07/28 09:07:21;;;;;;;7.60;6.67;;;30.20;80.20;;;;;;4969219;28;20957;-70
2022/07/28 09:09:48;;;;;;;7.50;6.80;;;30.60;78.60;;;;;;4971098;28;20471;-71
2022/07/28 09:12:14;;;;;;;8.00;7.20;;;30.90;77.40;;;;;;4970585;28;20530;-71
2022/07/28 09:14:40;;;;;;;7.07;6.57;;;30.70;77.20;;;;;;4973455;28;20522;-71
2022/07/28 09:17:07;;;;;;;7.10;6.60;;;30.90;77.70;;;;;;4969053;28;20235;-71
2022/07/28 09:19:32;;;;;;;8.33;7.73;;;30.80;77.10;;;;;;4971828;28;20496;-71
2022/07/28 09:21:59;;;;;;;8.97;6.80;;;30.50;77.20;;;;;;4970569;28;20447;-70
2022/07/28 09:24:35;;;;;;;6.90;6.30;;;30.40;77.60;;;;;;4967887;28;20347;-70
2022/07/28 09:27:12;;;;;;;8.03;7.30;;;30.40;78.00;;;;;;4970231;28;20494;-70
2022/07/28 09:29:40;;;;;;;7.20;6.70;;;30.50;76.90;;;;;;4960138;28;20542;-71
2022/07/28 09:32:07;;;;;;;8.70;7.40;;;30.50;77.00;;;;;;4970859;28;20518;-71
2022/07/28 09:34:40;;;;;;;8.63;7.83;;;30.70;76.40;;;;;;4973323;28;20478;-71
2022/07/28 09:37:14;;;;;;;6.87;6.17;;;31.20;76.10;;;;;;4970611;28;20451;-71
2022/07/28 09:39:40;;;;;;;7.97;7.37;;;32.10;74.50;;;;;;4970400;28;20435;-71
2022/07/28 09:42:06;;;;;;;8.00;7.23;;;32.80;71.30;;;;;;4972362;28;20526;-69
2022/07/28 09:44:31;;;;;;;8.27;7.63;;;33.30;70.60;;;;;;4984286;28;20231;-69
2022/07/28 09:46:57;;;;;;;7.07;6.47;;;33.40;68.90;;;;;;4974952;28;20203;-69
2022/07/28 09:49:40;;;;;;;7.83;7.33;;;33.10;68.70;;;;;;4979035;28;20562;-69
2022/07/28 09:52:06;;;;;;;7.90;7.30;;;33.40;68.30;;;;;;4970968;28;20192;-71
2022/07/28 09:54:32;;;;;;;10.63;9.73;;;33.30;68.10;;;;;;4969169;28;20559;-71
2022/07/28 09:56:57;;;;;;;8.27;7.67;;;33.60;67.80;;;;;;4970805;28;20200;-71
2022/07/28 09:59:23;;;;;;;14.60;8.50;;;34.00;66.30;;;;;;4969551;28;20185;-71
2022/07/28 10:02:00;;;;;;;7.37;6.77;;;34.60;64.20;;;;;;4982357;28;20180;-72
2022/07/28 10:04:36;;;;;;;7.60;7.10;;;34.80;64.00;;;;;;4971561;28;20451;-72
2022/07/28 10:07:08;;;;;;;7.40;7.00;;;34.50;63.00;;;;;;4980496;28;20971;-71
2022/07/28 10:09:35;;;;;;;10.07;6.63;;;34.10;63.50;;;;;;4973835;28;20435;-71
2022/07/28 10:12:23;;;;;;;8.00;7.30;;;34.60;62.80;;;;;;4970505;28;20497;-70
2022/07/28 10:14:51;;;;;;;7.03;6.53;;;34.30;62.30;;;;;;4982151;28;20446;-69
2022/07/28 10:17:30;;;;;;;7.60;7.00;;;33.60;63.60;;;;;;4978326;28;20534;-69
2022/07/28 10:19:57;;;;;;;10.47;9.60;;;32.40;65.80;;;;;;4972931;28;20439;-71
2022/07/28 10:22:26;;;;;;;10.90;10.00;;;32.00;66.40;;;;;;4960293;28;20959;-71
2022/07/28 10:24:53;;;;;;;15.97;14.33;;;31.80;67.80;;;;;;4985063;28;20435;-71
2022/07/28 10:27:21;;;;;;;8.67;8.07;;;32.60;66.20;;;;;;4972980;28;20443;-66
2022/07/28 10:29:55;;;;;;;16.17;14.67;;;33.70;64.30;;;;;;4968931;28;20947;-65
2022/07/28 10:32:21;;;;;;;9.37;8.50;;;33.90;63.50;;;;;;4975796;28;20891;-65
2022/07/28 10:34:58;;;;;;;10.33;9.53;;;33.90;63.20;;;;;;4976340;28;20533;-65
2022/07/28 10:37:27;;;;;;;8.03;7.40;;;35.30;61.40;;;;;;4974062;28;20467;-64
2022/07/28 10:40:02;;;;;;;9.13;6.90;;;36.10;59.00;;;;;;4974382;28;20534;-65
2022/07/28 10:42:28;;;;;;;6.77;6.17;;;35.20;59.20;;;;;;4955028;28;20853;-64
2022/07/28 10:44:55;;;;;;;11.50;10.33;;;34.70;59.80;;;;;;4971190;28;20440;-64
2022/07/28 10:47:22;;;;;;;7.33;6.73;;;35.00;60.40;;;;;;4975305;28;20180;-65
2022/07/28 10:49:48;;;;;;;8.17;7.50;;;36.90;57.80;;;;;;4974264;28;20470;-65
2022/07/28 10:52:16;;;;;;;7.57;6.87;;;36.60;56.10;;;;;;4976814;28;20946;-64
2022/07/28 10:55:06;;;;;;;7.40;6.80;;;35.30;56.90;;;;;;4974664;28;20941;-64
2022/07/28 10:57:33;;;;;;;6.67;6.27;;;33.90;58.80;;;;;;4957836;28;20472;-64
2022/07/28 11:00:05;;;;;;;6.37;5.87;;;33.50;59.30;;;;;;4972514;28;21015;-64
2022/07/28 11:02:51;;;;;;;7.47;6.17;;;32.90;59.20;;;;;;4973802;28;20956;-65
2022/07/28 11:05:42;;;;;;;7.10;6.70;;;32.90;59.60;;;;;;4979889;28;20439;-63
2022/07/28 11:08:28;;;;;;;7.27;6.67;;;33.40;58.60;;;;;;4980240;28;20446;-64
2022/07/28 11:10:54;;;;;;;7.30;6.70;;;33.00;58.60;;;;;;4977155;28;20438;-64
2022/07/28 11:13:34;;;;;;;7.87;7.27;;;32.30;59.40;;;;;;4970545;28;20467;-66
2022/07/28 11:16:12;;;;;;;7.67;7.07;;;31.50;60.90;;;;;;4963113;28;20514;-65
2022/07/28 11:19:06;;;;;;;6.60;6.20;;;31.40;62.70;;;;;;4972320;28;20434;-66
2022/07/28 11:21:32;;;;;;;7.27;6.70;;;33.30;60.00;;;;;;4969148;28;20575;-66
2022/07/28 11:23:58;;;;;;;7.77;7.17;;;33.80;58.40;;;;;;4982378;28;20463;-64
2022/07/28 11:26:23;;;;;;;6.70;6.20;;;33.40;58.40;;;;;;4977972;28;20956;-64
2022/07/28 11:29:07;;;;;;;7.13;6.63;;;32.40;59.60;;;;;;4972885;28;20184;-64
2022/07/28 11:31:47;;;;;;;17.47;16.20;;;32.40;60.40;;;;;;4975715;28;20693;-64
2022/07/28 11:34:20;;;;;;;7.43;6.67;;;32.80;59.60;;;;;;4970704;28;20857;-63
2022/07/28 11:37:03;;;;;;;6.90;6.40;;;32.90;58.60;;;;;;4977255;28;20809;-64
2022/07/28 11:39:30;;;;;;;6.70;6.20;;;32.40;59.20;;;;;;4971322;28;20435;-64
2022/07/28 11:41:56;;;;;;;6.70;6.20;;;31.70;59.60;;;;;;4970117;28;20435;-63
2022/07/28 11:44:32;;;;;;;6.37;5.53;;;31.90;59.90;;;;;;4974118;28;20514;-64
2022/07/28 11:47:24;;;;;;;6.83;6.23;;;34.10;57.80;;;;;;4978005;28;20435;-64
2022/07/28 11:50:10;;;;;;;7.10;6.60;;;35.70;55.60;;;;;;4969904;28;20475;-64
2022/07/28 11:52:35;;;;;;;6.40;6.00;;;35.40;54.80;;;;;;4972059;28;20545;-65
2022/07/28 11:55:02;;;;;;;6.10;5.70;;;34.60;55.10;;;;;;4974690;28;20497;-64
2022/07/28 11:57:28;;;;;;;6.17;5.67;;;33.60;56.30;;;;;;4970571;28;20603;-63
2022/07/28 11:59:56;;;;;;;6.60;6.10;;;32.80;57.00;;;;;;4971175;28;20462;-65
2022/07/28 12:02:24;;;;;;;6.07;5.63;;;32.60;57.30;;;;;;4971917;28;20183;-66
2022/07/28 12:04:59;;;;;;;7.80;7.07;;;32.80;57.30;;;;;;4970834;28;20439;-65
2022/07/28 12:07:38;;;;;;;6.50;6.00;;;33.10;57.10;;;;;;4981600;28;20488;-66
2022/07/28 12:10:22;;;;;;;7.30;6.73;;;33.40;56.30;;;;;;4972176;28;20439;-66
2022/07/28 12:12:52;;;;;;;7.60;7.00;;;33.70;56.00;;;;;;4977535;28;21057;-66
2022/07/28 12:15:18;;;;;;;5.87;5.47;;;33.90;56.30;;;;;;4971939;28;20471;-67
2022/07/28 12:17:45;;;;;;;5.47;4.97;;;35.10;54.80;;;;;;4972632;28;20455;-66
2022/07/28 12:20:12;;;;;;;5.83;5.53;;;35.50;54.10;;;;;;4981969;28;20809;-63
2022/07/28 12:22:38;;;;;;;6.60;6.13;;;35.70;53.30;;;;;;4971615;28;20590;-65
2022/07/28 12:25:04;;;;;;;6.23;5.83;;;35.70;52.90;;;;;;4965157;28;20872;-63
2022/07/28 12:27:29;;;;;;;7.00;6.10;;;34.90;53.50;;;;;;4972406;28;20180;-64
2022/07/28 12:30:00;;;;;;;9.10;6.17;;;34.00;53.80;;;;;;4971774;28;20207;-63
2022/07/28 12:32:36;;;;;;;6.43;5.80;;;33.70;54.50;;;;;;4973249;28;20180;-63
2022/07/28 12:35:02;;;;;;;6.37;4.90;;;33.10;54.30;;;;;;4973078;28;20447;-66
2022/07/28 12:37:28;;;;;;;5.70;5.23;;;32.60;55.20;;;;;;4972693;28;20492;-66
2022/07/28 12:39:54;;;;;;;7.27;6.30;;;33.00;55.30;;;;;;4968476;28;20184;-66
2022/07/28 12:42:19;;;;;;;5.90;5.40;;;33.10;54.40;;;;;;4972876;28;20852;-66
2022/07/28 12:44:47;;;;;;;7.10;6.40;;;32.50;54.80;;;;;;4973449;28;20171;-65
2022/07/28 12:47:14;;;;;;;5.70;5.40;;;32.10;54.80;;;;;;4972909;28;20267;-65
2022/07/28 12:49:42;;;;;;;5.47;5.17;;;32.20;55.30;;;;;;4972866;28;20438;-65
2022/07/28 12:52:21;;;;;;;5.90;5.40;;;31.90;55.70;;;;;;4955580;28;20474;-66
2022/07/28 12:54:47;;;;;;;6.47;5.90;;;32.50;55.50;;;;;;4973007;28;20443;-66